sensor_id;sensor_type;location;lat;lon;timestamp;temperature;humidity
9450;DHT22;4763;48.370;10.874;2023-09-07T00:55:10;14.20;99.90
9450;DHT22;4763;48.370;10.874;2023-09-07T01:08:58;14.00;99.90
9450;DHT22;4763;48.370;10.874;2023-09-07T01:11:50;14.00;99.90
9450;DHT22;4763;48.370;10.874;2023-09-07T01:29:49;13.90;99.90
9450;DHT22;4763;48.370;10.874;2023-09-07T01:32:58;13.90;99.90
9450;DHT22;4763;48.370;10.874;2023-09-07T01:47:08;13.80;99.90
9450;DHT22;4763;48.370;10.874;2023-09-07T01:53:49;13.70;99.90
9450;DHT22;4763;48.370;10.874;2023-09-07T02:19:18;13.50;99.90
9450;DHT22;4763;48.370;10.874;2023-09-07T02:26:46;13.40;99.90
9450;DHT22;4763;48.370;10.874;2023-09-07T02:36:28;13.40;99.90
9450;DHT22;4763;48.370;10.874;2023-09-07T02:43:19;13.30;99.90
9450;DHT22;4763;48.370;10.874;2023-09-07T03:28:06;13.10;99.90
9450;DHT22;4763;48.370;10.874;2023-09-07T04:56:22;12.70;99.90
9450;DHT22;4763;48.370;10.874;2023-09-07T05:03:00;12.70;99.90
9450;DHT22;4763;48.370;10.874;2023-09-07T05:10:18;12.70;99.90
9450;DHT22;4763;48.370;10.874;2023-09-07T05:12:57;12.70;99.90
9450;DHT22;4763;48.370;10.874;2023-09-07T05:16:42;12.70;99.90
9450;DHT22;4763;48.370;10.874;2023-09-07T05:19:27;12.80;99.90
9450;DHT22;4763;48.370;10.874;2023-09-07T05:22:47;12.80;99.90
9450;DHT22;4763;48.370;10.874;2023-09-07T05:26:13;12.90;99.90
9450;DHT22;4763;48.370;10.874;2023-09-07T05:32:38;12.90;99.90
9450;DHT22;4763;48.370;10.874;2023-09-07T05:35:08;12.90;99.90
9450;DHT22;4763;48.370;10.874;2023-09-07T05:40:44;12.90;99.90
9450;DHT22;4763;48.370;10.874;2023-09-07T05:43:20;13.00;99.90
9450;DHT22;4763;48.370;10.874;2023-09-07T05:46:07;13.00;99.90
9450;DHT22;4763;48.370;10.874;2023-09-07T05:49:17;13.00;99.90
9450;DHT22;4763;48.370;10.874;2023-09-07T05:51:57;13.10;99.90
9450;DHT22;4763;48.370;10.874;2023-09-07T05:57:41;13.20;99.90
9450;DHT22;4763;48.370;10.874;2023-09-07T06:00:21;13.20;99.90
9450;DHT22;4763;48.370;10.874;2023-09-07T06:02:59;13.30;99.90
9450;DHT22;4763;48.370;10.874;2023-09-07T06:05:33;13.30;99.90
9450;DHT22;4763;48.370;10.874;2023-09-07T06:08:17;13.40;99.90
9450;DHT22;4763;48.370;10.874;2023-09-07T06:10:58;13.50;99.90
9450;DHT22;4763;48.370;10.874;2023-09-07T06:13:57;13.50;99.90
9450;DHT22;4763;48.370;10.874;2023-09-07T06:17:02;13.60;99.90
9450;DHT22;4763;48.370;10.874;2023-09-07T06:19:47;13.80;99.90
9450;DHT22;4763;48.370;10.874;2023-09-07T06:22:53;14.00;99.90
9450;DHT22;4763;48.370;10.874;2023-09-07T06:25:27;14.00;99.90
9450;DHT22;4763;48.370;10.874;2023-09-07T06:28:07;14.20;99.90
9450;DHT22;4763;48.370;10.874;2023-09-07T06:32:09;14.40;99.90
9450;DHT22;4763;48.370;10.874;2023-09-07T06:34:15;14.50;99.90
9450;DHT22;4763;48.370;10.874;2023-09-07T06:37:10;14.70;99.90
9450;DHT22;4763;48.370;10.874;2023-09-07T06:39:45;14.80;99.90
9450;DHT22;4763;48.370;10.874;2023-09-07T06:42:56;15.00;99.90
9450;DHT22;4763;48.370;10.874;2023-09-07T06:46:02;15.10;99.90
9450;DHT22;4763;48.370;10.874;2023-09-07T06:49:10;15.30;99.90
9450;DHT22;4763;48.370;10.874;2023-09-07T06:52:19;15.60;99.90
9450;DHT22;4763;48.370;10.874;2023-09-07T06:55:05;15.70;99.90
9450;DHT22;4763;48.370;10.874;2023-09-07T07:00:40;15.90;99.90
9450;DHT22;4763;48.370;10.874;2023-09-07T07:03:14;16.00;99.90
9450;DHT22;4763;48.370;10.874;2023-09-07T07:06:18;16.20;99.90
9450;DHT22;4763;48.370;10.874;2023-09-07T07:08:54;16.30;99.90
9450;DHT22;4763;48.370;10.874;2023-09-07T07:15:00;16.50;99.90
9450;DHT22;4763;48.370;10.874;2023-09-07T07:18:23;16.60;99.90
9450;DHT22;4763;48.370;10.874;2023-09-07T07:21:28;16.70;99.90
9450;DHT22;4763;48.370;10.874;2023-09-07T07:24:11;16.90;99.90
9450;DHT22;4763;48.370;10.874;2023-09-07T07:27:46;17.00;99.90
9450;DHT22;4763;48.370;10.874;2023-09-07T07:33:42;17.30;99.90
9450;DHT22;4763;48.370;10.874;2023-09-07T07:37:52;17.50;99.90
9450;DHT22;4763;48.370;10.874;2023-09-07T07:51:06;18.20;99.90
9450;DHT22;4763;48.370;10.874;2023-09-07T07:54:02;18.40;99.90
9450;DHT22;4763;48.370;10.874;2023-09-07T07:56:41;18.50;99.90
9450;DHT22;4763;48.370;10.874;2023-09-07T08:06:00;19.00;99.90
9450;DHT22;4763;48.370;10.874;2023-09-07T08:10:39;19.20;99.90
9450;DHT22;4763;48.370;10.874;2023-09-07T08:12:01;19.50;99.90
9450;DHT22;4763;48.370;10.874;2023-09-07T08:14:29;19.70;99.90
9450;DHT22;4763;48.370;10.874;2023-09-07T08:16:57;19.80;99.90
9450;DHT22;4763;48.370;10.874;2023-09-07T08:19:24;19.90;99.90
9450;DHT22;4763;48.370;10.874;2023-09-07T08:21:57;20.10;99.90
9450;DHT22;4763;48.370;10.874;2023-09-07T08:24:35;20.40;99.90
9450;DHT22;4763;48.370;10.874;2023-09-07T08:27:12;20.60;99.90
9450;DHT22;4763;48.370;10.874;2023-09-07T08:29:46;20.90;99.90
9450;DHT22;4763;48.370;10.874;2023-09-07T08:32:22;21.10;99.90
9450;DHT22;4763;48.370;10.874;2023-09-07T08:34:55;21.30;99.90
9450;DHT22;4763;48.370;10.874;2023-09-07T08:37:33;21.50;99.90
9450;DHT22;4763;48.370;10.874;2023-09-07T08:40:04;21.70;99.90
9450;DHT22;4763;48.370;10.874;2023-09-07T08:47:02;22.10;99.90
9450;DHT22;4763;48.370;10.874;2023-09-07T08:50:38;22.30;99.90
9450;DHT22;4763;48.370;10.874;2023-09-07T08:57:58;22.80;99.90
9450;DHT22;4763;48.370;10.874;2023-09-07T09:03:58;23.20;99.90
9450;DHT22;4763;48.370;10.874;2023-09-07T09:07:25;23.20;99.90
9450;DHT22;4763;48.370;10.874;2023-09-07T09:39:39;24.70;99.90
9450;DHT22;4763;48.370;10.874;2023-09-07T09:46:55;25.30;99.90
9450;DHT22;4763;48.370;10.874;2023-09-07T09:53:08;25.50;99.90
9450;DHT22;4763;48.370;10.874;2023-09-07T09:56:07;25.90;99.90
9450;DHT22;4763;48.370;10.874;2023-09-07T09:59:08;25.90;99.90
9450;DHT22;4763;48.370;10.874;2023-09-07T10:01:58;26.10;99.90
9450;DHT22;4763;48.370;10.874;2023-09-07T10:58:46;27.50;99.90
9450;DHT22;4763;48.370;10.874;2023-09-07T11:01:36;27.70;99.90
9450;DHT22;4763;48.370;10.874;2023-09-07T11:11:35;28.10;99.90
9450;DHT22;4763;48.370;10.874;2023-09-07T11:14:06;28.10;99.90
9450;DHT22;4763;48.370;10.874;2023-09-07T11:17:25;27.80;99.90
9450;DHT22;4763;48.370;10.874;2023-09-07T11:20:11;27.50;99.90
9450;DHT22;4763;48.370;10.874;2023-09-07T11:23:28;27.80;99.90
9450;DHT22;4763;48.370;10.874;2023-09-07T11:48:40;29.00;99.90
9450;DHT22;4763;48.370;10.874;2023-09-07T11:52:10;29.20;99.90
9450;DHT22;4763;48.370;10.874;2023-09-07T15:16:13;32.50;95.70
9450;DHT22;4763;48.370;10.874;2023-09-07T15:30:00;31.70;94.50
9450;DHT22;4763;48.370;10.874;2023-09-07T15:40:27;30.20;95.30
9450;DHT22;4763;48.370;10.874;2023-09-07T15:43:37;29.80;96.20
9450;DHT22;4763;48.370;10.874;2023-09-07T15:46:15;29.50;97.70
9450;DHT22;4763;48.370;10.874;2023-09-07T15:49:04;29.30;96.20
9450;DHT22;4763;48.370;10.874;2023-09-07T15:53:19;28.90;97.30
9450;DHT22;4763;48.370;10.874;2023-09-07T17:19:24;24.20;99.90
9450;DHT22;4763;48.370;10.874;2023-09-07T17:41:13;23.20;99.90
9450;DHT22;4763;48.370;10.874;2023-09-07T17:43:54;23.00;99.90
9450;DHT22;4763;48.370;10.874;2023-09-07T17:46:30;22.90;99.90
9450;DHT22;4763;48.370;10.874;2023-09-07T17:49:18;22.80;99.90
9450;DHT22;4763;48.370;10.874;2023-09-07T17:51:46;22.60;99.90
9450;DHT22;4763;48.370;10.874;2023-09-07T17:54:14;22.40;99.90
9450;DHT22;4763;48.370;10.874;2023-09-07T17:56:45;22.20;99.90
9450;DHT22;4763;48.370;10.874;2023-09-07T17:59:12;22.10;99.90
9450;DHT22;4763;48.370;10.874;2023-09-07T18:01:39;22.00;99.90
9450;DHT22;4763;48.370;10.874;2023-09-07T18:04:08;22.00;99.90
9450;DHT22;4763;48.370;10.874;2023-09-07T18:06:35;21.80;99.90
9450;DHT22;4763;48.370;10.874;2023-09-07T18:09:02;21.70;99.90
9450;DHT22;4763;48.370;10.874;2023-09-07T18:11:42;21.50;99.90
9450;DHT22;4763;48.370;10.874;2023-09-07T18:14:16;21.40;99.90
9450;DHT22;4763;48.370;10.874;2023-09-07T18:17:06;21.30;99.90
9450;DHT22;4763;48.370;10.874;2023-09-07T18:20:19;21.20;99.90
9450;DHT22;4763;48.370;10.874;2023-09-07T18:22:43;21.20;99.90
9450;DHT22;4763;48.370;10.874;2023-09-07T18:25:34;21.10;99.90
9450;DHT22;4763;48.370;10.874;2023-09-07T18:28:02;20.90;99.90
9450;DHT22;4763;48.370;10.874;2023-09-07T18:30:31;20.90;99.90
9450;DHT22;4763;48.370;10.874;2023-09-07T18:32:58;20.70;99.90
9450;DHT22;4763;48.370;10.874;2023-09-07T18:35:30;20.70;99.90
9450;DHT22;4763;48.370;10.874;2023-09-07T18:38:27;20.60;99.90
9450;DHT22;4763;48.370;10.874;2023-09-07T18:40:57;20.50;99.90
9450;DHT22;4763;48.370;10.874;2023-09-07T18:44:03;20.40;99.90
9450;DHT22;4763;48.370;10.874;2023-09-07T18:46:53;20.30;99.90
9450;DHT22;4763;48.370;10.874;2023-09-07T18:49:31;20.20;99.90
9450;DHT22;4763;48.370;10.874;2023-09-07T18:52:10;20.10;99.90
9450;DHT22;4763;48.370;10.874;2023-09-07T18:54:40;20.00;99.90
9450;DHT22;4763;48.370;10.874;2023-09-07T18:57:24;20.00;99.90
9450;DHT22;4763;48.370;10.874;2023-09-07T18:59:51;19.90;99.90
9450;DHT22;4763;48.370;10.874;2023-09-07T19:02:20;19.90;99.90
9450;DHT22;4763;48.370;10.874;2023-09-07T19:04:47;19.80;99.90
9450;DHT22;4763;48.370;10.874;2023-09-07T19:07:18;19.70;99.90
9450;DHT22;4763;48.370;10.874;2023-09-07T19:09:55;19.60;99.90
9450;DHT22;4763;48.370;10.874;2023-09-07T19:12:37;19.50;99.90
9450;DHT22;4763;48.370;10.874;2023-09-07T19:15:15;19.50;99.90
9450;DHT22;4763;48.370;10.874;2023-09-07T19:17:53;19.40;99.90
9450;DHT22;4763;48.370;10.874;2023-09-07T19:20:31;19.30;99.90
9450;DHT22;4763;48.370;10.874;2023-09-07T19:23:01;19.30;99.90
9450;DHT22;4763;48.370;10.874;2023-09-07T19:25:31;19.20;99.90
9450;DHT22;4763;48.370;10.874;2023-09-07T19:27:59;19.20;99.90
9450;DHT22;4763;48.370;10.874;2023-09-07T19:30:26;19.10;99.90
9450;DHT22;4763;48.370;10.874;2023-09-07T19:32:56;19.10;99.90
9450;DHT22;4763;48.370;10.874;2023-09-07T19:35:23;18.90;99.90
9450;DHT22;4763;48.370;10.874;2023-09-07T19:37:50;18.90;99.90
9450;DHT22;4763;48.370;10.874;2023-09-07T19:40:20;18.80;99.90
9450;DHT22;4763;48.370;10.874;2023-09-07T19:42:47;18.80;99.90
9450;DHT22;4763;48.370;10.874;2023-09-07T19:45:24;18.80;99.90
9450;DHT22;4763;48.370;10.874;2023-09-07T19:48:06;18.80;99.90
9450;DHT22;4763;48.370;10.874;2023-09-07T19:50:36;18.70;99.90
9450;DHT22;4763;48.370;10.874;2023-09-07T19:53:08;18.60;99.90
9450;DHT22;4763;48.370;10.874;2023-09-07T19:57:15;18.50;99.90
9450;DHT22;4763;48.370;10.874;2023-09-07T19:59:27;18.40;99.90
9450;DHT22;4763;48.370;10.874;2023-09-07T20:01:55;18.40;99.90
9450;DHT22;4763;48.370;10.874;2023-09-07T20:05:05;18.30;99.90
9450;DHT22;4763;48.370;10.874;2023-09-07T20:08:18;18.20;99.90
9450;DHT22;4763;48.370;10.874;2023-09-07T20:10:50;18.20;99.90
9450;DHT22;4763;48.370;10.874;2023-09-07T20:13:34;18.10;99.90
9450;DHT22;4763;48.370;10.874;2023-09-07T20:16:05;18.00;99.90
9450;DHT22;4763;48.370;10.874;2023-09-07T20:18:46;18.00;99.90
9450;DHT22;4763;48.370;10.874;2023-09-07T20:21:27;18.00;99.90
9450;DHT22;4763;48.370;10.874;2023-09-07T20:23:59;18.00;99.90
9450;DHT22;4763;48.370;10.874;2023-09-07T20:26:47;17.90;99.90
9450;DHT22;4763;48.370;10.874;2023-09-07T20:29:21;17.90;99.90
9450;DHT22;4763;48.370;10.874;2023-09-07T20:32:19;17.80;99.90
9450;DHT22;4763;48.370;10.874;2023-09-07T20:37:46;17.60;99.90
9450;DHT22;4763;48.370;10.874;2023-09-07T20:40:38;17.60;99.90
9450;DHT22;4763;48.370;10.874;2023-09-07T20:43:28;17.60;99.90
9450;DHT22;4763;48.370;10.874;2023-09-07T20:46:59;17.60;99.90
9450;DHT22;4763;48.370;10.874;2023-09-07T20:49:12;17.50;99.90
9450;DHT22;4763;48.370;10.874;2023-09-07T20:52:22;17.50;99.90
9450;DHT22;4763;48.370;10.874;2023-09-07T20:57:57;17.40;99.90
9450;DHT22;4763;48.370;10.874;2023-09-07T21:00:34;17.40;99.90
9450;DHT22;4763;48.370;10.874;2023-09-07T21:03:07;17.50;99.90
9450;DHT22;4763;48.370;10.874;2023-09-07T21:12:24;17.20;99.90
9450;DHT22;4763;48.370;10.874;2023-09-07T21:14:59;17.10;99.90
9450;DHT22;4763;48.370;10.874;2023-09-07T21:17:46;17.10;99.90
9450;DHT22;4763;48.370;10.874;2023-09-07T21:20:51;17.00;99.90
9450;DHT22;4763;48.370;10.874;2023-09-07T21:23:40;17.00;99.90
9450;DHT22;4763;48.370;10.874;2023-09-07T21:26:14;16.90;99.90
9450;DHT22;4763;48.370;10.874;2023-09-07T21:28:43;16.90;99.90
9450;DHT22;4763;48.370;10.874;2023-09-07T21:31:20;16.80;99.90
9450;DHT22;4763;48.370;10.874;2023-09-07T21:38:34;16.80;99.90
9450;DHT22;4763;48.370;10.874;2023-09-07T21:40:53;16.80;99.90
9450;DHT22;4763;48.370;10.874;2023-09-07T21:51:05;16.70;99.90
9450;DHT22;4763;48.370;10.874;2023-09-07T21:53:35;16.60;99.90
9450;DHT22;4763;48.370;10.874;2023-09-07T21:56:08;16.50;99.90
9450;DHT22;4763;48.370;10.874;2023-09-07T21:59:09;16.40;99.90
9450;DHT22;4763;48.370;10.874;2023-09-07T22:01:49;16.40;99.90
9450;DHT22;4763;48.370;10.874;2023-09-07T22:04:49;16.40;99.90
9450;DHT22;4763;48.370;10.874;2023-09-07T22:07:21;16.40;99.90
9450;DHT22;4763;48.370;10.874;2023-09-07T22:09:50;16.30;99.90
9450;DHT22;4763;48.370;10.874;2023-09-07T22:12:17;16.30;99.90
9450;DHT22;4763;48.370;10.874;2023-09-07T22:14:44;16.20;99.90
9450;DHT22;4763;48.370;10.874;2023-09-07T22:17:11;16.20;99.90
9450;DHT22;4763;48.370;10.874;2023-09-07T22:19:40;16.20;99.90
9450;DHT22;4763;48.370;10.874;2023-09-07T22:22:07;16.20;99.90
9450;DHT22;4763;48.370;10.874;2023-09-07T22:24:38;16.10;99.90
9450;DHT22;4763;48.370;10.874;2023-09-07T22:27:23;16.10;99.90
9450;DHT22;4763;48.370;10.874;2023-09-07T22:29:57;16.00;99.90
9450;DHT22;4763;48.370;10.874;2023-09-07T22:32:50;16.00;99.90
9450;DHT22;4763;48.370;10.874;2023-09-07T22:35:30;15.90;99.90
9450;DHT22;4763;48.370;10.874;2023-09-07T22:38:08;15.90;99.90
9450;DHT22;4763;48.370;10.874;2023-09-07T22:40:47;15.90;99.90
9450;DHT22;4763;48.370;10.874;2023-09-07T22:43:30;15.80;99.90
9450;DHT22;4763;48.370;10.874;2023-09-07T22:46:09;15.80;99.90
9450;DHT22;4763;48.370;10.874;2023-09-07T22:48:47;15.80;99.90
9450;DHT22;4763;48.370;10.874;2023-09-07T22:51:14;15.80;99.90
9450;DHT22;4763;48.370;10.874;2023-09-07T22:53:45;15.80;99.90
9450;DHT22;4763;48.370;10.874;2023-09-07T22:56:19;15.80;99.90
9450;DHT22;4763;48.370;10.874;2023-09-07T22:59:08;15.80;99.90
9450;DHT22;4763;48.370;10.874;2023-09-07T23:01:54;15.70;99.90
9450;DHT22;4763;48.370;10.874;2023-09-07T23:04:26;15.70;99.90
9450;DHT22;4763;48.370;10.874;2023-09-07T23:07:14;15.60;99.90
9450;DHT22;4763;48.370;10.874;2023-09-07T23:10:54;15.60;99.90
9450;DHT22;4763;48.370;10.874;2023-09-07T23:16:01;15.50;99.90
9450;DHT22;4763;48.370;10.874;2023-09-07T23:18:31;15.40;99.90
9450;DHT22;4763;48.370;10.874;2023-09-07T23:21:01;15.40;99.90
9450;DHT22;4763;48.370;10.874;2023-09-07T23:23:32;15.40;99.90
9450;DHT22;4763;48.370;10.874;2023-09-07T23:26:09;15.30;99.90
9450;DHT22;4763;48.370;10.874;2023-09-07T23:29:12;15.40;99.90
9450;DHT22;4763;48.370;10.874;2023-09-07T23:32:23;15.30;99.90
9450;DHT22;4763;48.370;10.874;2023-09-07T23:35:03;15.40;99.90
9450;DHT22;4763;48.370;10.874;2023-09-07T23:38:30;15.40;99.90
9450;DHT22;4763;48.370;10.874;2023-09-07T23:44:40;15.40;99.90
9450;DHT22;4763;48.370;10.874;2023-09-07T23:47:28;15.40;99.90
9450;DHT22;4763;48.370;10.874;2023-09-07T23:50:08;15.30;99.90
9450;DHT22;4763;48.370;10.874;2023-09-07T23:56:01;15.20;99.90
9450;DHT22;4763;48.370;10.874;2023-09-07T23:58:41;15.20;99.90
